sensor_id;sensor_type;location;lat;lon;timestamp;P1;durP1;ratioP1;P2;durP2;ratioP2
21675;SDS011;10999;51.332;9.458;2024-02-28T00:01:32;19.38;;;7.80;;
21675;SDS011;10999;51.332;9.458;2024-02-28T00:05:01;24.55;;;8.55;;
21675;SDS011;10999;51.332;9.458;2024-02-28T00:08:28;19.63;;;8.43;;
21675;SDS011;10999;51.332;9.458;2024-02-28T00:12:07;17.63;;;6.05;;
21675;SDS011;10999;51.332;9.458;2024-02-28T00:15:06;19.45;;;7.78;;
21675;SDS011;10999;51.332;9.458;2024-02-28T00:18:32;15.70;;;7.00;;
21675;SDS011;10999;51.332;9.458;2024-02-28T00:22:21;17.60;;;6.45;;
21675;SDS011;10999;51.332;9.458;2024-02-28T00:26:00;21.27;;;7.32;;
21675;SDS011;10999;51.332;9.458;2024-02-28T00:29:50;20.77;;;8.05;;
21675;SDS011;10999;51.332;9.458;2024-02-28T00:32:59;22.73;;;8.30;;
21675;SDS011;10999;51.332;9.458;2024-02-28T00:36:28;19.05;;;6.65;;
21675;SDS011;10999;51.332;9.458;2024-02-28T00:40:09;23.23;;;8.55;;
21675;SDS011;10999;51.332;9.458;2024-02-28T00:48:01;22.83;;;8.27;;
21675;SDS011;10999;51.332;9.458;2024-02-28T00:51:42;23.00;;;7.07;;
21675;SDS011;10999;51.332;9.458;2024-02-28T00:55:06;19.73;;;7.72;;
21675;SDS011;10999;51.332;9.458;2024-02-28T03:42:02;26.39;;;10.06;;
21675;SDS011;10999;51.332;9.458;2024-02-28T03:44:49;25.90;;;9.60;;
21675;SDS011;10999;51.332;9.458;2024-02-28T03:47:32;27.90;;;11.23;;
21675;SDS011;10999;51.332;9.458;2024-02-28T03:50:32;24.75;;;9.15;;
21675;SDS011;10999;51.332;9.458;2024-02-28T03:53:20;30.48;;;10.63;;
21675;SDS011;10999;51.332;9.458;2024-02-28T03:56:25;28.95;;;9.90;;
21675;SDS011;10999;51.332;9.458;2024-02-28T03:59:30;24.58;;;8.93;;
21675;SDS011;10999;51.332;9.458;2024-02-28T04:02:20;30.10;;;9.95;;
21675;SDS011;10999;51.332;9.458;2024-02-28T04:05:24;23.15;;;8.60;;
21675;SDS011;10999;51.332;9.458;2024-02-28T04:08:26;26.75;;;9.98;;
21675;SDS011;10999;51.332;9.458;2024-02-28T04:11:20;29.13;;;10.20;;
21675;SDS011;10999;51.332;9.458;2024-02-28T04:14:31;27.50;;;10.82;;
21675;SDS011;10999;51.332;9.458;2024-02-28T04:17:29;31.48;;;10.40;;
21675;SDS011;10999;51.332;9.458;2024-02-28T06:28:10;34.13;;;13.32;;
21675;SDS011;10999;51.332;9.458;2024-02-28T06:31:14;34.67;;;11.05;;
21675;SDS011;10999;51.332;9.458;2024-02-28T06:34:18;34.50;;;11.07;;
21675;SDS011;10999;51.332;9.458;2024-02-28T06:37:05;29.98;;;10.00;;
21675;SDS011;10999;51.332;9.458;2024-02-28T06:39:51;34.85;;;11.65;;
21675;SDS011;10999;51.332;9.458;2024-02-28T06:42:44;36.45;;;12.35;;
21675;SDS011;10999;51.332;9.458;2024-02-28T06:45:48;35.58;;;11.52;;
21675;SDS011;10999;51.332;9.458;2024-02-28T06:48:52;35.55;;;11.80;;
21675;SDS011;10999;51.332;9.458;2024-02-28T06:51:59;34.78;;;13.48;;
21675;SDS011;10999;51.332;9.458;2024-02-28T06:54:44;32.13;;;9.23;;
21675;SDS011;10999;51.332;9.458;2024-02-28T07:00:18;30.20;;;9.98;;
21675;SDS011;10999;51.332;9.458;2024-02-28T07:03:14;30.40;;;10.07;;
21675;SDS011;10999;51.332;9.458;2024-02-28T07:06:14;32.85;;;10.88;;
21675;SDS011;10999;51.332;9.458;2024-02-28T07:09:02;31.10;;;10.38;;
21675;SDS011;10999;51.332;9.458;2024-02-28T07:11:43;28.98;;;10.52;;
21675;SDS011;10999;51.332;9.458;2024-02-28T07:14:38;34.75;;;11.73;;
21675;SDS011;10999;51.332;9.458;2024-02-28T07:17:27;37.78;;;11.73;;
21675;SDS011;10999;51.332;9.458;2024-02-28T07:20:12;37.95;;;12.23;;
21675;SDS011;10999;51.332;9.458;2024-02-28T07:23:15;31.88;;;11.05;;
21675;SDS011;10999;51.332;9.458;2024-02-28T07:26:07;26.85;;;9.55;;
21675;SDS011;10999;51.332;9.458;2024-02-28T07:29:10;37.13;;;11.38;;
21675;SDS011;10999;51.332;9.458;2024-02-28T07:32:14;30.08;;;9.85;;
21675;SDS011;10999;51.332;9.458;2024-02-28T07:35:26;24.98;;;10.55;;
21675;SDS011;10999;51.332;9.458;2024-02-28T07:38:34;30.08;;;10.38;;
21675;SDS011;10999;51.332;9.458;2024-02-28T07:41:29;29.42;;;10.95;;
21675;SDS011;10999;51.332;9.458;2024-02-28T07:44:33;29.98;;;11.50;;
21675;SDS011;10999;51.332;9.458;2024-02-28T07:48:03;33.25;;;10.70;;
21675;SDS011;10999;51.332;9.458;2024-02-28T07:52:03;36.30;;;11.57;;
21675;SDS011;10999;51.332;9.458;2024-02-28T07:55:22;33.30;;;9.45;;
21675;SDS011;10999;51.332;9.458;2024-02-28T08:00:52;32.60;;;11.23;;
21675;SDS011;10999;51.332;9.458;2024-02-28T08:03:33;31.45;;;9.68;;
21675;SDS011;10999;51.332;9.458;2024-02-28T08:06:11;32.40;;;11.90;;
21675;SDS011;10999;51.332;9.458;2024-02-28T08:09:01;30.33;;;9.23;;
21675;SDS011;10999;51.332;9.458;2024-02-28T08:11:44;36.78;;;11.13;;
21675;SDS011;10999;51.332;9.458;2024-02-28T08:15:19;33.28;;;11.73;;
21675;SDS011;10999;51.332;9.458;2024-02-28T08:18:37;36.03;;;11.60;;
21675;SDS011;10999;51.332;9.458;2024-02-28T08:22:04;35.47;;;12.73;;
21675;SDS011;10999;51.332;9.458;2024-02-28T08:25:12;34.15;;;11.07;;
21675;SDS011;10999;51.332;9.458;2024-02-28T08:28:18;33.55;;;12.65;;
21675;SDS011;10999;51.332;9.458;2024-02-28T08:31:07;37.05;;;12.18;;
21675;SDS011;10999;51.332;9.458;2024-02-28T08:34:05;34.33;;;12.30;;
21675;SDS011;10999;51.332;9.458;2024-02-28T08:36:54;31.92;;;10.13;;
21675;SDS011;10999;51.332;9.458;2024-02-28T08:40:07;38.72;;;12.07;;
21675;SDS011;10999;51.332;9.458;2024-02-28T08:43:13;35.88;;;11.52;;
21675;SDS011;10999;51.332;9.458;2024-02-28T08:45:47;35.65;;;12.88;;
21675;SDS011;10999;51.332;9.458;2024-02-28T08:48:53;37.08;;;12.93;;
21675;SDS011;10999;51.332;9.458;2024-02-28T08:52:00;31.75;;;12.45;;
21675;SDS011;10999;51.332;9.458;2024-02-28T08:55:23;38.58;;;12.00;;
21675;SDS011;10999;51.332;9.458;2024-02-28T08:58:10;42.15;;;12.75;;
21675;SDS011;10999;51.332;9.458;2024-02-28T09:01:14;41.75;;;13.30;;
21675;SDS011;10999;51.332;9.458;2024-02-28T09:04:05;42.20;;;14.18;;
21675;SDS011;10999;51.332;9.458;2024-02-28T09:07:14;43.67;;;12.95;;
21675;SDS011;10999;51.332;9.458;2024-02-28T09:09:46;42.22;;;13.05;;
21675;SDS011;10999;51.332;9.458;2024-02-28T09:12:34;37.25;;;12.68;;
21675;SDS011;10999;51.332;9.458;2024-02-28T09:15:21;35.17;;;12.40;;
21675;SDS011;10999;51.332;9.458;2024-02-28T09:18:27;41.67;;;12.40;;
21675;SDS011;10999;51.332;9.458;2024-02-28T09:20:54;42.00;;;13.90;;
21675;SDS011;10999;51.332;9.458;2024-02-28T09:23:21;35.80;;;12.88;;
21675;SDS011;10999;51.332;9.458;2024-02-28T09:26:05;38.33;;;13.45;;
21675;SDS011;10999;51.332;9.458;2024-02-28T09:29:13;43.55;;;13.15;;
21675;SDS011;10999;51.332;9.458;2024-02-28T09:31:54;35.00;;;12.93;;
21675;SDS011;10999;51.332;9.458;2024-02-28T09:34:41;38.60;;;13.40;;
21675;SDS011;10999;51.332;9.458;2024-02-28T09:37:16;39.63;;;12.75;;
21675;SDS011;10999;51.332;9.458;2024-02-28T09:40:22;42.38;;;12.82;;
21675;SDS011;10999;51.332;9.458;2024-02-28T09:43:51;40.50;;;12.00;;
21675;SDS011;10999;51.332;9.458;2024-02-28T09:46:27;38.78;;;12.85;;
21675;SDS011;10999;51.332;9.458;2024-02-28T09:48:57;35.35;;;12.57;;
21675;SDS011;10999;51.332;9.458;2024-02-28T09:51:27;39.60;;;13.98;;
21675;SDS011;10999;51.332;9.458;2024-02-28T09:54:08;37.08;;;13.45;;
21675;SDS011;10999;51.332;9.458;2024-02-28T10:05:02;34.53;;;12.55;;
21675;SDS011;10999;51.332;9.458;2024-02-28T10:09:06;36.55;;;11.52;;
21675;SDS011;10999;51.332;9.458;2024-02-28T10:12:22;34.55;;;11.48;;
21675;SDS011;10999;51.332;9.458;2024-02-28T10:16:13;28.52;;;9.93;;
21675;SDS011;10999;51.332;9.458;2024-02-28T10:19:53;36.17;;;12.30;;
21675;SDS011;10999;51.332;9.458;2024-02-28T10:23:23;36.92;;;11.43;;
21675;SDS011;10999;51.332;9.458;2024-02-28T10:26:25;36.35;;;12.60;;
21675;SDS011;10999;51.332;9.458;2024-02-28T10:29:38;36.75;;;12.48;;
21675;SDS011;10999;51.332;9.458;2024-02-28T10:32:29;34.40;;;13.10;;
21675;SDS011;10999;51.332;9.458;2024-02-28T10:35:19;38.38;;;13.38;;
21675;SDS011;10999;51.332;9.458;2024-02-28T10:38:31;36.65;;;12.30;;
21675;SDS011;10999;51.332;9.458;2024-02-28T10:41:16;36.33;;;12.98;;
21675;SDS011;10999;51.332;9.458;2024-02-28T10:45:05;38.00;;;13.50;;
21675;SDS011;10999;51.332;9.458;2024-02-28T10:48:32;31.45;;;10.90;;
21675;SDS011;10999;51.332;9.458;2024-02-28T10:51:15;34.03;;;11.85;;
21675;SDS011;10999;51.332;9.458;2024-02-28T10:54:04;39.05;;;12.07;;
21675;SDS011;10999;51.332;9.458;2024-02-28T10:56:48;35.85;;;12.57;;
21675;SDS011;10999;51.332;9.458;2024-02-28T10:59:17;35.85;;;12.50;;
21675;SDS011;10999;51.332;9.458;2024-02-28T11:01:44;36.78;;;12.73;;
21675;SDS011;10999;51.332;9.458;2024-02-28T11:04:19;34.55;;;11.70;;
21675;SDS011;10999;51.332;9.458;2024-02-28T11:06:57;34.80;;;12.38;;
21675;SDS011;10999;51.332;9.458;2024-02-28T11:09:40;34.45;;;12.45;;
21675;SDS011;10999;51.332;9.458;2024-02-28T11:12:25;29.58;;;12.93;;
21675;SDS011;10999;51.332;9.458;2024-02-28T11:15:04;37.25;;;13.20;;
21675;SDS011;10999;51.332;9.458;2024-02-28T11:18:14;31.70;;;9.82;;
21675;SDS011;10999;51.332;9.458;2024-02-28T11:20:44;34.38;;;10.98;;
21675;SDS011;10999;51.332;9.458;2024-02-28T11:23:25;32.25;;;11.95;;
21675;SDS011;10999;51.332;9.458;2024-02-28T11:26:33;33.53;;;12.27;;
21675;SDS011;10999;51.332;9.458;2024-02-28T11:29:21;34.42;;;11.93;;
21675;SDS011;10999;51.332;9.458;2024-02-28T11:32:13;30.23;;;11.57;;
21675;SDS011;10999;51.332;9.458;2024-02-28T11:36:02;35.83;;;11.60;;
21675;SDS011;10999;51.332;9.458;2024-02-28T11:46:23;31.40;;;10.50;;
21675;SDS011;10999;51.332;9.458;2024-02-28T11:50:09;37.22;;;13.65;;
21675;SDS011;10999;51.332;9.458;2024-02-28T11:53:17;32.35;;;13.00;;
21675;SDS011;10999;51.332;9.458;2024-02-28T11:56:29;36.20;;;13.68;;
21675;SDS011;10999;51.332;9.458;2024-02-28T12:20:21;34.58;;;11.90;;
21675;SDS011;10999;51.332;9.458;2024-02-28T12:27:23;37.22;;;13.38;;
21675;SDS011;10999;51.332;9.458;2024-02-28T12:30:39;33.50;;;12.93;;
21675;SDS011;10999;51.332;9.458;2024-02-28T12:33:41;34.78;;;12.43;;
21675;SDS011;10999;51.332;9.458;2024-02-28T12:41:31;33.30;;;10.50;;
21675;SDS011;10999;51.332;9.458;2024-02-28T12:44:40;34.20;;;12.23;;
21675;SDS011;10999;51.332;9.458;2024-02-28T12:47:59;37.65;;;12.18;;
21675;SDS011;10999;51.332;9.458;2024-02-28T12:51:59;37.00;;;12.63;;
21675;SDS011;10999;51.332;9.458;2024-02-28T12:54:26;40.47;;;15.10;;
21675;SDS011;10999;51.332;9.458;2024-02-28T12:56:55;39.92;;;14.15;;
21675;SDS011;10999;51.332;9.458;2024-02-28T12:59:22;36.58;;;13.50;;
21675;SDS011;10999;51.332;9.458;2024-02-28T13:02:09;33.92;;;13.27;;
21675;SDS011;10999;51.332;9.458;2024-02-28T13:04:50;36.47;;;13.07;;
21675;SDS011;10999;51.332;9.458;2024-02-28T13:14:13;34.08;;;13.20;;
21675;SDS011;10999;51.332;9.458;2024-02-28T13:16:40;35.13;;;12.02;;
21675;SDS011;10999;51.332;9.458;2024-02-28T13:19:07;36.03;;;12.93;;
21675;SDS011;10999;51.332;9.458;2024-02-28T13:21:34;34.50;;;11.88;;
21675;SDS011;10999;51.332;9.458;2024-02-28T13:24:01;34.67;;;13.20;;
21675;SDS011;10999;51.332;9.458;2024-02-28T13:26:29;32.83;;;13.77;;
21675;SDS011;10999;51.332;9.458;2024-02-28T13:28:56;35.63;;;13.00;;
21675;SDS011;10999;51.332;9.458;2024-02-28T13:31:43;36.42;;;12.65;;
21675;SDS011;10999;51.332;9.458;2024-02-28T13:38:10;34.75;;;14.00;;
21675;SDS011;10999;51.332;9.458;2024-02-28T13:41:21;38.70;;;16.13;;
21675;SDS011;10999;51.332;9.458;2024-02-28T13:43:50;36.72;;;14.38;;
21675;SDS011;10999;51.332;9.458;2024-02-28T13:46:22;37.38;;;15.60;;
21675;SDS011;10999;51.332;9.458;2024-02-28T13:48:49;42.25;;;16.17;;
21675;SDS011;10999;51.332;9.458;2024-02-28T13:51:16;36.55;;;14.07;;
21675;SDS011;10999;51.332;9.458;2024-02-28T13:53:43;37.97;;;14.52;;
21675;SDS011;10999;51.332;9.458;2024-02-28T13:56:10;40.28;;;15.63;;
21675;SDS011;10999;51.332;9.458;2024-02-28T13:58:37;38.30;;;14.55;;
21675;SDS011;10999;51.332;9.458;2024-02-28T14:01:14;37.20;;;13.98;;
21675;SDS011;10999;51.332;9.458;2024-02-28T14:03:41;43.50;;;16.77;;
21675;SDS011;10999;51.332;9.458;2024-02-28T14:06:08;39.55;;;15.85;;
21675;SDS011;10999;51.332;9.458;2024-02-28T14:08:35;33.40;;;13.25;;
21675;SDS011;10999;51.332;9.458;2024-02-28T14:11:02;38.60;;;15.27;;
21675;SDS011;10999;51.332;9.458;2024-02-28T14:13:29;39.53;;;14.18;;
21675;SDS011;10999;51.332;9.458;2024-02-28T14:15:56;41.00;;;14.18;;
21675;SDS011;10999;51.332;9.458;2024-02-28T14:18:23;39.75;;;16.00;;
21675;SDS011;10999;51.332;9.458;2024-02-28T14:20:50;38.53;;;14.85;;
21675;SDS011;10999;51.332;9.458;2024-02-28T14:23:17;36.58;;;14.57;;
21675;SDS011;10999;51.332;9.458;2024-02-28T14:25:44;39.47;;;14.25;;
21675;SDS011;10999;51.332;9.458;2024-02-28T14:28:10;34.33;;;12.95;;
21675;SDS011;10999;51.332;9.458;2024-02-28T14:30:39;32.17;;;12.20;;
21675;SDS011;10999;51.332;9.458;2024-02-28T14:33:06;38.00;;;13.00;;
21675;SDS011;10999;51.332;9.458;2024-02-28T14:35:34;32.28;;;11.93;;
21675;SDS011;10999;51.332;9.458;2024-02-28T14:38:05;33.78;;;13.07;;
21675;SDS011;10999;51.332;9.458;2024-02-28T14:40:32;31.92;;;12.75;;
21675;SDS011;10999;51.332;9.458;2024-02-28T14:42:59;32.90;;;12.10;;
21675;SDS011;10999;51.332;9.458;2024-02-28T14:45:26;29.05;;;12.07;;
21675;SDS011;10999;51.332;9.458;2024-02-28T14:47:54;28.65;;;10.63;;
21675;SDS011;10999;51.332;9.458;2024-02-28T14:50:21;33.17;;;11.48;;
21675;SDS011;10999;51.332;9.458;2024-02-28T14:52:48;28.33;;;10.48;;
21675;SDS011;10999;51.332;9.458;2024-02-28T14:55:15;30.30;;;11.93;;
21675;SDS011;10999;51.332;9.458;2024-02-28T14:57:41;35.65;;;12.43;;
21675;SDS011;10999;51.332;9.458;2024-02-28T15:00:09;27.90;;;10.68;;
21675;SDS011;10999;51.332;9.458;2024-02-28T15:02:41;30.25;;;10.77;;
21675;SDS011;10999;51.332;9.458;2024-02-28T15:05:08;32.42;;;12.38;;
21675;SDS011;10999;51.332;9.458;2024-02-28T15:07:35;27.42;;;10.25;;
21675;SDS011;10999;51.332;9.458;2024-02-28T15:10:02;23.50;;;9.40;;
21675;SDS011;10999;51.332;9.458;2024-02-28T15:12:31;27.92;;;11.40;;
21675;SDS011;10999;51.332;9.458;2024-02-28T15:15:00;26.60;;;10.35;;
21675;SDS011;10999;51.332;9.458;2024-02-28T15:17:29;29.88;;;11.15;;
21675;SDS011;10999;51.332;9.458;2024-02-28T15:19:56;26.85;;;10.15;;
21675;SDS011;10999;51.332;9.458;2024-02-28T15:22:22;26.63;;;10.95;;
21675;SDS011;10999;51.332;9.458;2024-02-28T15:24:49;27.35;;;10.68;;
21675;SDS011;10999;51.332;9.458;2024-02-28T15:27:16;27.88;;;11.25;;
21675;SDS011;10999;51.332;9.458;2024-02-28T15:29:43;24.55;;;9.13;;
21675;SDS011;10999;51.332;9.458;2024-02-28T15:32:09;25.75;;;10.45;;
21675;SDS011;10999;51.332;9.458;2024-02-28T15:34:37;18.77;;;7.82;;
21675;SDS011;10999;51.332;9.458;2024-02-28T15:37:04;22.13;;;8.48;;
21675;SDS011;10999;51.332;9.458;2024-02-28T15:39:31;18.77;;;8.15;;
21675;SDS011;10999;51.332;9.458;2024-02-28T15:41:58;19.95;;;7.20;;
21675;SDS011;10999;51.332;9.458;2024-02-28T15:44:26;18.55;;;7.40;;
21675;SDS011;10999;51.332;9.458;2024-02-28T15:46:53;14.75;;;6.38;;
21675;SDS011;10999;51.332;9.458;2024-02-28T15:49:20;15.73;;;6.60;;
21675;SDS011;10999;51.332;9.458;2024-02-28T15:52:02;17.00;;;6.53;;
21675;SDS011;10999;51.332;9.458;2024-02-28T15:54:29;17.67;;;6.70;;
21675;SDS011;10999;51.332;9.458;2024-02-28T15:56:56;18.70;;;6.32;;
21675;SDS011;10999;51.332;9.458;2024-02-28T15:59:25;16.00;;;6.43;;
21675;SDS011;10999;51.332;9.458;2024-02-28T16:01:52;16.17;;;6.53;;
21675;SDS011;10999;51.332;9.458;2024-02-28T16:04:19;15.18;;;7.05;;
21675;SDS011;10999;51.332;9.458;2024-02-28T16:06:46;16.27;;;6.18;;
21675;SDS011;10999;51.332;9.458;2024-02-28T16:09:12;14.13;;;5.00;;
21675;SDS011;10999;51.332;9.458;2024-02-28T16:11:46;14.48;;;5.25;;
21675;SDS011;10999;51.332;9.458;2024-02-28T16:14:13;14.43;;;5.90;;
21675;SDS011;10999;51.332;9.458;2024-02-28T16:16:39;16.08;;;5.47;;
21675;SDS011;10999;51.332;9.458;2024-02-28T16:19:06;15.55;;;5.80;;
21675;SDS011;10999;51.332;9.458;2024-02-28T16:21:47;13.30;;;5.22;;
21675;SDS011;10999;51.332;9.458;2024-02-28T16:24:16;14.50;;;5.38;;
21675;SDS011;10999;51.332;9.458;2024-02-28T16:26:43;15.65;;;6.18;;
21675;SDS011;10999;51.332;9.458;2024-02-28T16:29:10;16.30;;;6.55;;
21675;SDS011;10999;51.332;9.458;2024-02-28T16:31:37;15.50;;;6.25;;
21675;SDS011;10999;51.332;9.458;2024-02-28T16:34:04;17.25;;;6.90;;
21675;SDS011;10999;51.332;9.458;2024-02-28T16:36:30;16.83;;;7.00;;
21675;SDS011;10999;51.332;9.458;2024-02-28T16:38:57;18.05;;;6.43;;
21675;SDS011;10999;51.332;9.458;2024-02-28T16:41:24;18.05;;;7.63;;
21675;SDS011;10999;51.332;9.458;2024-02-28T16:43:51;17.88;;;7.53;;
21675;SDS011;10999;51.332;9.458;2024-02-28T16:46:21;19.98;;;7.03;;
21675;SDS011;10999;51.332;9.458;2024-02-28T16:48:48;23.05;;;9.15;;
21675;SDS011;10999;51.332;9.458;2024-02-28T16:51:15;21.17;;;8.13;;
21675;SDS011;10999;51.332;9.458;2024-02-28T16:53:43;17.48;;;6.65;;
21675;SDS011;10999;51.332;9.458;2024-02-28T16:56:10;19.30;;;7.00;;
21675;SDS011;10999;51.332;9.458;2024-02-28T16:58:37;17.30;;;6.40;;
21675;SDS011;10999;51.332;9.458;2024-02-28T17:01:08;18.13;;;6.88;;
21675;SDS011;10999;51.332;9.458;2024-02-28T17:03:35;18.17;;;7.30;;
21675;SDS011;10999;51.332;9.458;2024-02-28T17:06:02;44.03;;;20.20;;
21675;SDS011;10999;51.332;9.458;2024-02-28T17:08:29;80.35;;;36.33;;
21675;SDS011;10999;51.332;9.458;2024-02-28T17:10:59;28.98;;;13.07;;
21675;SDS011;10999;51.332;9.458;2024-02-28T17:13:26;22.15;;;10.68;;
21675;SDS011;10999;51.332;9.458;2024-02-28T17:15:52;23.42;;;10.43;;
21675;SDS011;10999;51.332;9.458;2024-02-28T17:18:29;24.50;;;9.73;;
21675;SDS011;10999;51.332;9.458;2024-02-28T17:20:56;24.70;;;9.45;;
21675;SDS011;10999;51.332;9.458;2024-02-28T17:23:24;20.60;;;8.73;;
21675;SDS011;10999;51.332;9.458;2024-02-28T17:25:52;22.60;;;9.40;;
21675;SDS011;10999;51.332;9.458;2024-02-28T17:28:20;24.33;;;9.48;;
21675;SDS011;10999;51.332;9.458;2024-02-28T17:30:47;22.73;;;8.90;;
21675;SDS011;10999;51.332;9.458;2024-02-28T17:33:14;21.60;;;8.90;;
21675;SDS011;10999;51.332;9.458;2024-02-28T17:35:41;19.35;;;7.47;;
21675;SDS011;10999;51.332;9.458;2024-02-28T17:38:08;19.80;;;7.45;;
21675;SDS011;10999;51.332;9.458;2024-02-28T17:40:35;20.35;;;7.70;;
21675;SDS011;10999;51.332;9.458;2024-02-28T17:43:02;20.23;;;8.35;;
21675;SDS011;10999;51.332;9.458;2024-02-28T17:45:30;20.27;;;7.57;;
21675;SDS011;10999;51.332;9.458;2024-02-28T17:47:57;18.10;;;7.75;;
21675;SDS011;10999;51.332;9.458;2024-02-28T17:50:24;20.52;;;8.13;;
21675;SDS011;10999;51.332;9.458;2024-02-28T17:52:51;20.85;;;7.63;;
21675;SDS011;10999;51.332;9.458;2024-02-28T17:55:18;17.27;;;6.88;;
21675;SDS011;10999;51.332;9.458;2024-02-28T17:57:45;17.08;;;7.30;;
21675;SDS011;10999;51.332;9.458;2024-02-28T18:00:12;18.27;;;7.65;;
21675;SDS011;10999;51.332;9.458;2024-02-28T18:02:39;21.73;;;8.90;;
21675;SDS011;10999;51.332;9.458;2024-02-28T18:05:08;19.42;;;6.95;;
21675;SDS011;10999;51.332;9.458;2024-02-28T18:07:35;18.83;;;7.22;;
21675;SDS011;10999;51.332;9.458;2024-02-28T18:10:02;20.08;;;6.80;;
21675;SDS011;10999;51.332;9.458;2024-02-28T18:12:30;17.88;;;7.18;;
21675;SDS011;10999;51.332;9.458;2024-02-28T18:14:56;20.20;;;8.02;;
21675;SDS011;10999;51.332;9.458;2024-02-28T18:17:23;18.02;;;7.85;;
21675;SDS011;10999;51.332;9.458;2024-02-28T18:19:51;16.85;;;7.78;;
21675;SDS011;10999;51.332;9.458;2024-02-28T18:22:18;20.58;;;8.50;;
21675;SDS011;10999;51.332;9.458;2024-02-28T18:24:44;25.20;;;8.25;;
21675;SDS011;10999;51.332;9.458;2024-02-28T18:27:11;20.75;;;7.63;;
21675;SDS011;10999;51.332;9.458;2024-02-28T18:29:38;18.95;;;7.45;;
21675;SDS011;10999;51.332;9.458;2024-02-28T18:32:05;19.25;;;8.20;;
21675;SDS011;10999;51.332;9.458;2024-02-28T18:34:32;15.52;;;7.05;;
21675;SDS011;10999;51.332;9.458;2024-02-28T18:36:59;17.45;;;7.88;;
21675;SDS011;10999;51.332;9.458;2024-02-28T18:39:26;22.15;;;7.88;;
21675;SDS011;10999;51.332;9.458;2024-02-28T18:41:53;20.52;;;8.00;;
21675;SDS011;10999;51.332;9.458;2024-02-28T18:44:20;19.20;;;8.27;;
21675;SDS011;10999;51.332;9.458;2024-02-28T18:46:46;18.67;;;7.40;;
21675;SDS011;10999;51.332;9.458;2024-02-28T18:49:13;22.10;;;8.38;;
21675;SDS011;10999;51.332;9.458;2024-02-28T18:51:40;22.30;;;9.20;;
21675;SDS011;10999;51.332;9.458;2024-02-28T18:54:07;17.80;;;7.65;;
21675;SDS011;10999;51.332;9.458;2024-02-28T18:56:34;18.45;;;7.80;;
21675;SDS011;10999;51.332;9.458;2024-02-28T18:59:01;20.13;;;7.72;;
21675;SDS011;10999;51.332;9.458;2024-02-28T19:01:28;21.63;;;9.00;;
21675;SDS011;10999;51.332;9.458;2024-02-28T19:03:54;22.33;;;7.63;;
21675;SDS011;10999;51.332;9.458;2024-02-28T19:06:22;21.25;;;7.22;;
21675;SDS011;10999;51.332;9.458;2024-02-28T19:08:51;21.63;;;8.65;;
21675;SDS011;10999;51.332;9.458;2024-02-28T19:11:21;19.52;;;8.57;;
21675;SDS011;10999;51.332;9.458;2024-02-28T19:13:48;22.38;;;9.05;;
21675;SDS011;10999;51.332;9.458;2024-02-28T19:16:16;23.05;;;9.13;;
21675;SDS011;10999;51.332;9.458;2024-02-28T19:18:44;23.35;;;8.55;;
21675;SDS011;10999;51.332;9.458;2024-02-28T19:21:11;24.50;;;9.10;;
21675;SDS011;10999;51.332;9.458;2024-02-28T19:23:38;19.83;;;8.73;;
21675;SDS011;10999;51.332;9.458;2024-02-28T19:26:07;23.73;;;9.02;;
21675;SDS011;10999;51.332;9.458;2024-02-28T19:28:33;22.25;;;9.60;;
21675;SDS011;10999;51.332;9.458;2024-02-28T19:31:00;21.85;;;8.25;;
21675;SDS011;10999;51.332;9.458;2024-02-28T19:33:28;21.23;;;8.25;;
21675;SDS011;10999;51.332;9.458;2024-02-28T19:35:55;21.63;;;8.82;;
21675;SDS011;10999;51.332;9.458;2024-02-28T19:38:22;19.08;;;9.23;;
21675;SDS011;10999;51.332;9.458;2024-02-28T19:40:49;25.90;;;9.13;;
21675;SDS011;10999;51.332;9.458;2024-02-28T19:43:17;21.63;;;9.90;;
21675;SDS011;10999;51.332;9.458;2024-02-28T19:45:44;25.85;;;10.10;;
21675;SDS011;10999;51.332;9.458;2024-02-28T19:48:11;21.98;;;9.95;;
21675;SDS011;10999;51.332;9.458;2024-02-28T19:50:38;25.75;;;10.27;;
21675;SDS011;10999;51.332;9.458;2024-02-28T19:53:05;22.25;;;10.27;;
21675;SDS011;10999;51.332;9.458;2024-02-28T19:55:31;23.30;;;10.38;;
21675;SDS011;10999;51.332;9.458;2024-02-28T19:57:58;29.25;;;11.43;;
21675;SDS011;10999;51.332;9.458;2024-02-28T20:00:26;30.70;;;13.65;;
21675;SDS011;10999;51.332;9.458;2024-02-28T20:02:53;29.80;;;12.20;;
21675;SDS011;10999;51.332;9.458;2024-02-28T20:05:20;30.42;;;11.43;;
21675;SDS011;10999;51.332;9.458;2024-02-28T20:07:47;24.45;;;10.82;;
21675;SDS011;10999;51.332;9.458;2024-02-28T20:10:14;22.95;;;10.35;;
21675;SDS011;10999;51.332;9.458;2024-02-28T20:12:42;21.83;;;10.00;;
21675;SDS011;10999;51.332;9.458;2024-02-28T20:15:09;26.90;;;11.35;;
21675;SDS011;10999;51.332;9.458;2024-02-28T20:17:36;26.75;;;11.38;;
21675;SDS011;10999;51.332;9.458;2024-02-28T20:20:03;26.15;;;11.10;;
21675;SDS011;10999;51.332;9.458;2024-02-28T20:22:30;26.02;;;12.48;;
21675;SDS011;10999;51.332;9.458;2024-02-28T20:24:57;22.30;;;10.13;;
21675;SDS011;10999;51.332;9.458;2024-02-28T20:27:24;26.02;;;11.18;;
21675;SDS011;10999;51.332;9.458;2024-02-28T20:29:51;24.27;;;10.52;;
21675;SDS011;10999;51.332;9.458;2024-02-28T20:32:18;30.88;;;11.52;;
21675;SDS011;10999;51.332;9.458;2024-02-28T20:34:45;26.77;;;11.15;;
21675;SDS011;10999;51.332;9.458;2024-02-28T20:37:11;27.08;;;11.43;;
21675;SDS011;10999;51.332;9.458;2024-02-28T20:39:38;24.05;;;10.10;;
21675;SDS011;10999;51.332;9.458;2024-02-28T20:42:05;28.95;;;10.88;;
21675;SDS011;10999;51.332;9.458;2024-02-28T20:44:32;27.52;;;10.68;;
21675;SDS011;10999;51.332;9.458;2024-02-28T20:46:59;22.42;;;9.80;;
21675;SDS011;10999;51.332;9.458;2024-02-28T20:49:26;26.75;;;12.02;;
21675;SDS011;10999;51.332;9.458;2024-02-28T20:51:52;26.08;;;11.35;;
21675;SDS011;10999;51.332;9.458;2024-02-28T20:54:23;28.98;;;10.93;;
21675;SDS011;10999;51.332;9.458;2024-02-28T20:56:50;22.05;;;9.48;;
21675;SDS011;10999;51.332;9.458;2024-02-28T20:59:31;21.92;;;9.73;;
21675;SDS011;10999;51.332;9.458;2024-02-28T21:02:00;20.20;;;9.27;;
21675;SDS011;10999;51.332;9.458;2024-02-28T21:04:27;23.40;;;10.23;;
21675;SDS011;10999;51.332;9.458;2024-02-28T21:06:55;22.02;;;9.73;;
21675;SDS011;10999;51.332;9.458;2024-02-28T21:09:22;25.83;;;9.93;;
21675;SDS011;10999;51.332;9.458;2024-02-28T21:11:49;24.40;;;9.63;;
21675;SDS011;10999;51.332;9.458;2024-02-28T21:14:27;20.92;;;8.95;;
21675;SDS011;10999;51.332;9.458;2024-02-28T21:16:53;20.65;;;8.90;;
21675;SDS011;10999;51.332;9.458;2024-02-28T21:19:21;20.80;;;9.52;;
21675;SDS011;10999;51.332;9.458;2024-02-28T21:21:48;22.42;;;7.95;;
21675;SDS011;10999;51.332;9.458;2024-02-28T21:24:15;20.13;;;7.40;;
21675;SDS011;10999;51.332;9.458;2024-02-28T21:26:42;18.35;;;8.88;;
21675;SDS011;10999;51.332;9.458;2024-02-28T21:29:09;20.67;;;7.72;;
21675;SDS011;10999;51.332;9.458;2024-02-28T21:31:36;20.38;;;9.30;;
21675;SDS011;10999;51.332;9.458;2024-02-28T21:34:03;23.23;;;8.15;;
21675;SDS011;10999;51.332;9.458;2024-02-28T21:36:30;20.90;;;7.55;;
21675;SDS011;10999;51.332;9.458;2024-02-28T21:38:57;19.10;;;7.75;;
21675;SDS011;10999;51.332;9.458;2024-02-28T21:41:24;19.42;;;8.30;;
21675;SDS011;10999;51.332;9.458;2024-02-28T21:43:51;16.77;;;7.30;;
21675;SDS011;10999;51.332;9.458;2024-02-28T21:46:20;21.08;;;8.52;;
21675;SDS011;10999;51.332;9.458;2024-02-28T21:48:47;17.50;;;7.40;;